Time;durP1;ratioP1;P1;durP2;ratioP2;P2;SDS_P1;SDS_P2;PMS_P1;PMS_P2;Temp;Humidity;BMP_temperature;BMP_pressure;BME280_temperature;BME280_humidity;BME280_pressure;Samples;Min_cycle;Max_cycle;Signal;HPM_P1;HPM_P2
2023/03/15 00:00:56;;;;;;;1.22;1.12;;;;;;;24.03;36.48;99159.50;1845120;77;27805;-54
2023/03/15 00:03:45;;;;;;;0.90;0.90;;;;;;;24.03;36.50;99165.83;1843372;77;27792;-59
2023/03/15 00:06:35;;;;;;;2.10;1.10;;;;;;;24.02;36.48;99163.31;1851325;77;28183;-54
2023/03/15 00:09:23;;;;;;;1.00;1.00;;;;;;;24.04;36.50;99173.49;1840453;76;28537;-53
2023/03/15 00:12:11;;;;;;;1.25;1.15;;;;;;;24.05;36.49;99160.08;1834554;77;28267;-56
2023/03/15 00:15:00;;;;;;;1.00;1.00;;;;;;;24.05;36.47;99166.94;1833890;76;28246;-56
2023/03/15 00:17:48;;;;;;;1.30;1.20;;;;;;;24.07;36.44;99168.08;1840617;76;28214;-57
2023/03/15 00:20:37;;;;;;;1.75;1.10;;;;;;;24.09;36.43;99182.38;1829018;76;28234;-55
2023/03/15 00:23:26;;;;;;;0.80;0.80;;;;;;;24.08;36.45;99183.47;1830709;77;33219;-52
2023/03/15 00:26:15;;;;;;;0.80;0.80;;;;;;;24.07;36.47;99194.14;1808869;78;28149;-56
2023/03/15 00:29:04;;;;;;;1.00;1.00;;;;;;;24.08;36.49;99187.59;1829594;77;28659;-54
2023/03/15 00:31:52;;;;;;;1.20;1.10;;;;;;;24.08;36.48;99192.55;1823068;77;28175;-57
2023/03/15 00:34:48;;;;;;;1.00;1.00;;;;;;;24.04;36.56;99196.28;1831605;76;28271;-54
2023/03/15 00:37:32;;;;;;;1.17;0.90;;;;;;;24.09;36.51;99201.58;1832509;76;28256;-58
2023/03/15 00:40:21;;;;;;;1.00;1.00;;;;;;;24.08;36.48;99197.20;1818583;77;28375;-57
2023/03/15 00:43:10;;;;;;;1.10;1.00;;;;;;;24.09;36.46;99190.61;1830250;76;28275;-56
2023/03/15 00:45:59;;;;;;;1.10;1.00;;;;;;;24.07;36.47;99193.61;1795494;78;28361;-54
2023/03/15 00:48:51;;;;;;;1.00;1.00;;;;;;;24.09;36.50;99203.80;1794252;78;28206;-56
2023/03/15 00:51:40;;;;;;;1.07;1.00;;;;;;;24.09;36.48;99199.67;1827899;77;28161;-57
2023/03/15 00:54:28;;;;;;;0.90;0.90;;;;;;;24.11;36.47;99199.45;1833853;77;28272;-56
2023/03/15 00:57:17;;;;;;;0.90;0.90;;;;;;;24.09;36.41;99199.67;1834197;77;28165;-54
2023/03/15 01:00:08;;;;;;;0.85;0.80;;;;;;;24.05;36.46;99202.08;1827900;76;28252;-54
2023/03/15 01:02:57;;;;;;;0.97;0.97;;;;;;;24.04;36.59;99211.91;1831508;76;28124;-53
2023/03/15 01:05:45;;;;;;;1.07;1.02;;;;;;;24.05;36.57;99207.56;1812091;77;28232;-56
2023/03/15 01:08:33;;;;;;;3.30;1.00;;;;;;;24.07;36.52;99216.09;1793818;77;28315;-53
2023/03/15 01:11:25;;;;;;;0.80;0.80;;;;;;;24.09;36.47;99212.56;1828695;77;28271;-54
2023/03/15 01:14:13;;;;;;;0.90;0.90;;;;;;;24.09;36.46;99205.70;1829115;77;28189;-55
2023/03/15 01:17:01;;;;;;;0.90;0.90;;;;;;;24.09;36.45;99204.33;1845482;77;28249;-54
2023/03/15 01:19:50;;;;;;;1.00;0.82;;;;;;;24.08;36.43;99204.05;1834137;77;28186;-57
2023/03/15 01:22:40;;;;;;;1.20;0.98;;;;;;;24.05;36.46;99196.59;1848495;77;28192;-51
2023/03/15 01:25:28;;;;;;;2.72;0.98;;;;;;;24.05;36.46;99195.75;1818339;77;28283;-53
2023/03/15 01:28:17;;;;;;;1.20;0.90;;;;;;;24.05;36.44;99191.63;1797332;77;28185;-56
2023/03/15 01:31:06;;;;;;;3.90;1.05;;;;;;;24.06;36.39;99197.45;1831549;77;28250;-52
2023/03/15 01:33:54;;;;;;;1.02;1.02;;;;;;;24.05;36.38;99202.61;1848074;77;28229;-54
2023/03/15 01:36:44;;;;;;;0.85;0.85;;;;;;;24.05;36.38;99195.75;1848769;77;28148;-54
2023/03/15 01:39:33;;;;;;;0.95;0.95;;;;;;;24.05;36.35;99189.73;1816865;77;28141;-52
2023/03/15 01:42:22;;;;;;;1.10;1.00;;;;;;;24.04;36.37;99190.80;1816440;77;28327;-55
2023/03/15 01:45:48;;;;;;;1.32;1.15;;;;;;;24.01;36.36;99184.43;1838104;76;28285;-53
2023/03/15 01:48:45;;;;;;;1.27;1.17;;;;;;;24.04;36.39;99185.31;1832191;77;28301;-50
2023/03/15 01:51:48;;;;;;;0.93;0.93;;;;;;;23.98;36.43;99185.48;1840274;77;28240;-53
2023/03/15 01:54:42;;;;;;;1.20;0.98;;;;;;;23.97;36.47;99179.16;1807775;77;28276;-53
2023/03/15 01:57:40;;;;;;;0.80;0.80;;;;;;;23.96;36.49;99178.05;1814740;77;28418;-55
2023/03/15 02:00:26;;;;;;;0.90;0.90;;;;;;;23.95;36.49;99176.38;1829835;77;28164;-51
2023/03/15 02:03:19;;;;;;;0.85;0.82;;;;;;;23.95;36.47;99168.98;1819301;77;28308;-55
2023/03/15 02:06:10;;;;;;;0.90;0.90;;;;;;;23.95;36.44;99164.03;1829833;77;28209;-55
2023/03/15 02:09:03;;;;;;;0.90;0.90;;;;;;;23.96;36.41;99167.08;1828243;77;28231;-54
2023/03/15 02:11:53;;;;;;;0.85;0.85;;;;;;;23.90;36.38;99166.69;1830409;76;28224;-54
2023/03/15 02:14:42;;;;;;;2.50;0.90;;;;;;;23.93;36.44;99197.22;1782256;79;28422;-54
2023/03/15 02:17:42;;;;;;;0.95;0.95;;;;;;;23.91;36.42;99215.00;1786996;79;38803;-54
2023/03/15 02:20:36;;;;;;;0.80;0.80;;;;;;;23.96;36.42;99222.79;1798117;78;28196;-54
2023/03/15 02:23:25;;;;;;;0.93;0.93;;;;;;;23.95;36.39;99221.64;1802213;78;28213;-51
2023/03/15 02:26:33;;;;;;;1.50;0.80;;;;;;;23.93;36.40;99204.61;1829320;78;28208;-50
2023/03/15 02:29:24;;;;;;;1.15;0.95;;;;;;;23.92;36.40;99218.86;1810612;78;28242;-55
2023/03/15 02:32:13;;;;;;;1.98;1.00;;;;;;;23.93;36.43;99238.90;1817208;78;28181;-51
2023/03/15 02:35:01;;;;;;;0.80;0.80;;;;;;;23.92;36.41;99238.63;1800947;79;28300;-53
2023/03/15 02:37:51;;;;;;;0.80;0.63;;;;;;;23.92;36.42;99238.63;1813548;78;28286;-53
2023/03/15 02:40:40;;;;;;;0.55;0.53;;;;;;;23.89;36.40;99232.27;1821445;78;28301;-54
2023/03/15 02:43:31;;;;;;;0.70;0.70;;;;;;;23.92;36.39;99238.06;1822102;78;28179;-53
2023/03/15 02:46:21;;;;;;;1.80;0.85;;;;;;;23.92;36.42;99241.38;1822014;78;28264;-55
2023/03/15 02:49:11;;;;;;;0.90;0.90;;;;;;;23.93;36.35;99234.78;1815426;78;28242;-52
2023/03/15 02:51:59;;;;;;;1.07;1.00;;;;;;;23.92;36.44;99241.38;1821135;78;28301;-53
2023/03/15 02:54:47;;;;;;;0.90;0.90;;;;;;;23.91;36.40;99239.70;1824150;78;28889;-55
2023/03/15 02:57:37;;;;;;;0.70;0.70;;;;;;;23.92;36.45;99240.00;1812103;78;28323;-53
2023/03/15 03:00:26;;;;;;;0.70;0.70;;;;;;;23.92;36.46;99230.40;1804785;78;28326;-53
2023/03/15 03:03:14;;;;;;;0.80;0.80;;;;;;;23.91;36.42;99231.47;1828945;78;28138;-54
2023/03/15 03:06:03;;;;;;;0.78;0.78;;;;;;;23.92;36.44;99235.88;1827296;78;28197;-54
2023/03/15 03:08:51;;;;;;;0.82;0.82;;;;;;;23.94;36.42;99232.34;1830796;78;28608;-55
2023/03/15 03:11:40;;;;;;;1.72;0.90;;;;;;;23.91;36.39;99237.79;1828936;75;28267;-53
2023/03/15 03:14:30;;;;;;;0.60;0.60;;;;;;;23.92;36.42;99240.00;1847102;75;27921;-52
2023/03/15 03:17:18;;;;;;;0.70;0.70;;;;;;;23.90;36.37;99240.77;1840078;77;28341;-54
2023/03/15 03:20:10;;;;;;;0.80;0.80;;;;;;;23.87;36.41;99233.89;1805557;78;28125;-52
2023/03/15 03:23:04;;;;;;;0.85;0.85;;;;;;;23.91;36.41;99236.42;1821019;78;38575;-52
2023/03/15 03:25:50;;;;;;;0.62;0.62;;;;;;;23.89;36.41;99233.63;1818299;78;28744;-51
2023/03/15 03:28:40;;;;;;;0.90;0.90;;;;;;;23.89;36.43;99233.09;1783185;79;28155;-54
2023/03/15 03:31:32;;;;;;;0.70;0.70;;;;;;;23.87;36.43;99238.00;1780538;79;27924;-53
2023/03/15 03:34:20;;;;;;;0.70;0.70;;;;;;;23.87;36.44;99249.52;1785433;78;28323;-54
2023/03/15 03:37:08;;;;;;;0.57;0.57;;;;;;;23.90;36.45;99246.25;1821575;78;28272;-52
2023/03/15 03:40:07;;;;;;;0.60;0.60;;;;;;;23.87;36.43;99242.12;1819500;77;28212;-54
2023/03/15 03:42:56;;;;;;;0.88;0.88;;;;;;;23.85;36.46;99243.45;1794776;78;28357;-53
2023/03/15 03:45:44;;;;;;;0.80;0.80;;;;;;;23.86;36.47;99251.41;1807724;78;28281;-52
2023/03/15 03:48:33;;;;;;;1.80;0.70;;;;;;;23.87;36.46;99249.52;1815466;78;28299;-53
2023/03/15 03:51:21;;;;;;;0.80;0.80;;;;;;;23.86;36.53;99251.41;1808388;78;28373;-51
2023/03/15 03:54:10;;;;;;;0.90;0.90;;;;;;;23.88;36.47;99256.11;1810428;77;28787;-50
2023/03/15 03:56:58;;;;;;;0.70;0.70;;;;;;;23.86;36.52;99255.53;1813598;78;28308;-55
2023/03/15 03:59:48;;;;;;;0.70;0.70;;;;;;;23.90;36.43;99257.22;1789440;78;28284;-51
2023/03/15 04:02:36;;;;;;;0.73;0.73;;;;;;;23.86;36.47;99256.06;1845441;77;27724;-53
2023/03/15 04:05:26;;;;;;;0.82;0.82;;;;;;;23.88;36.43;99255.27;1821415;77;28217;-54
2023/03/15 04:08:15;;;;;;;0.65;0.65;;;;;;;23.88;36.49;99255.27;1847754;77;27791;-55
2023/03/15 04:11:04;;;;;;;0.80;0.80;;;;;;;23.87;36.49;99255.00;1853953;77;27737;-53
2023/03/15 04:13:54;;;;;;;0.90;0.90;;;;;;;23.86;36.51;99253.32;1848357;76;27789;-53
2023/03/15 04:16:42;;;;;;;0.50;0.50;;;;;;;23.87;36.53;99249.52;1856290;77;27729;-54
2023/03/15 04:19:32;;;;;;;0.50;0.50;;;;;;;23.87;36.48;99246.77;1872207;75;28027;-55
2023/03/15 04:22:21;;;;;;;0.60;0.60;;;;;;;23.85;36.57;99245.63;1846013;77;27734;-57
2023/03/15 04:25:15;;;;;;;1.27;0.80;;;;;;;23.86;36.56;99234.95;1856874;77;27818;-54
2023/03/15 04:28:09;;;;;;;0.70;0.70;;;;;;;23.85;36.56;99236.02;1842024;77;28332;-50
2023/03/15 04:31:03;;;;;;;0.80;0.80;;;;;;;23.84;36.62;99234.91;1852263;77;27769;-53
2023/03/15 04:34:09;;;;;;;0.60;0.60;;;;;;;23.84;36.55;99227.52;1856672;77;27738;-53
2023/03/15 04:37:01;;;;;;;0.70;0.70;;;;;;;23.80;36.59;99221.41;1856842;75;27688;-54
2023/03/15 04:40:01;;;;;;;0.70;0.70;;;;;;;23.81;36.57;99218.95;1841813;76;27687;-54
2023/03/15 04:42:54;;;;;;;1.40;0.80;;;;;;;23.80;36.60;99219.51;1852209;77;28146;-56
2023/03/15 04:45:56;;;;;;;0.80;0.80;;;;;;;23.80;36.56;99220.88;1829464;76;28147;-54
2023/03/15 04:48:55;;;;;;;0.90;0.70;;;;;;;23.80;36.54;99218.67;1836200;77;27703;-54
2023/03/15 04:52:01;;;;;;;0.68;0.68;;;;;;;23.78;36.53;99216.72;1849408;77;28288;-52
2023/03/15 04:55:00;;;;;;;0.60;0.60;;;;;;;23.76;36.53;99217.48;1786507;76;28248;-53
2023/03/15 04:58:06;;;;;;;0.42;0.42;;;;;;;23.76;36.53;99218.32;1853970;77;28373;-54
2023/03/15 05:00:56;;;;;;;0.45;0.45;;;;;;;23.74;36.51;99216.91;1850591;75;28160;-54
2023/03/15 05:03:49;;;;;;;0.65;0.65;;;;;;;23.77;36.51;99221.37;1787936;77;27802;-55
2023/03/15 05:06:42;;;;;;;0.70;0.70;;;;;;;23.76;36.49;99218.85;1783930;77;28154;-53
2023/03/15 05:09:45;;;;;;;0.70;0.70;;;;;;;23.76;36.55;99221.59;1822632;76;28307;-52
2023/03/15 05:12:51;;;;;;;0.60;0.60;;;;;;;23.77;36.59;99216.41;1855583;77;27720;-54
2023/03/15 05:15:44;;;;;;;0.60;0.60;;;;;;;23.73;36.57;99216.09;1853259;77;27804;-54
2023/03/15 05:18:35;;;;;;;0.70;0.70;;;;;;;23.75;36.55;99212.56;1856862;77;28129;-54
2023/03/15 05:21:28;;;;;;;0.67;0.67;;;;;;;23.74;36.61;99216.37;1841423;76;27683;-54
2023/03/15 05:24:21;;;;;;;0.60;0.50;;;;;;;23.75;36.68;99224.06;1852624;77;28187;-53
2023/03/15 05:27:20;;;;;;;0.80;0.80;;;;;;;23.71;36.81;99222.91;1815626;76;28284;-54
2023/03/15 05:30:13;;;;;;;0.70;0.65;;;;;;;23.71;36.81;99222.91;1794410;79;28246;-55
2023/03/15 05:33:21;;;;;;;1.80;0.55;;;;;;;23.75;36.68;99235.03;1844205;77;27708;-55
2023/03/15 05:36:16;;;;;;;0.65;0.65;;;;;;;23.72;36.72;99236.36;1807322;77;30703;-56
2023/03/15 05:39:24;;;;;;;0.53;0.53;;;;;;;23.74;36.73;99239.69;1765894;80;28386;-53
2023/03/15 05:42:28;;;;;;;1.00;0.70;;;;;;;23.71;36.80;99237.99;1756259;79;28423;-49
2023/03/15 05:45:31;;;;;;;1.00;0.60;;;;;;;23.70;36.79;99231.67;1782690;79;28422;-51
2023/03/15 05:48:27;;;;;;;0.53;0.53;;;;;;;23.70;36.82;99237.16;1789994;78;28246;-52
2023/03/15 05:51:17;;;;;;;1.50;0.80;;;;;;;23.70;36.81;99235.78;1844978;77;27762;-55
2023/03/15 05:54:23;;;;;;;0.50;0.50;;;;;;;23.71;36.81;99240.73;1841708;76;27722;-53
2023/03/15 05:57:13;;;;;;;0.65;0.65;;;;;;;23.69;36.80;99245.08;1856616;75;27724;-53
2023/03/15 06:00:08;;;;;;;0.62;0.62;;;;;;;23.71;36.78;99246.22;1856834;77;28185;-54
2023/03/15 06:03:02;;;;;;;0.90;0.70;;;;;;;23.70;36.81;99247.28;1855283;77;28057;-51
2023/03/15 06:06:02;;;;;;;0.60;0.60;;;;;;;23.72;36.84;99250.61;1819891;78;28962;-53
2023/03/15 06:08:52;;;;;;;0.80;0.60;;;;;;;23.70;36.82;99257.72;1805919;78;32272;-53
2023/03/15 06:11:40;;;;;;;0.60;0.60;;;;;;;23.72;36.87;99249.23;1821298;78;28253;-53
2023/03/15 06:14:30;;;;;;;0.73;0.67;;;;;;;23.72;36.79;99251.98;1819028;77;28311;-53
2023/03/15 06:17:21;;;;;;;0.40;0.37;;;;;;;23.72;36.74;99243.22;1821359;78;28241;-53
2023/03/15 06:20:11;;;;;;;0.50;0.50;;;;;;;23.72;36.80;99245.96;1800443;78;28360;-51
2023/03/15 06:22:59;;;;;;;0.75;0.60;;;;;;;23.72;36.78;99240.48;1817200;77;28318;-53
2023/03/15 06:25:51;;;;;;;0.72;0.72;;;;;;;23.72;36.76;99245.96;1821994;76;28349;-54
2023/03/15 06:28:41;;;;;;;0.57;0.57;;;;;;;23.72;36.77;99247.33;1774884;79;28321;-52
2023/03/15 06:31:30;;;;;;;0.50;0.50;;;;;;;23.72;36.72;99248.70;1807844;78;28334;-53
2023/03/15 06:34:21;;;;;;;0.50;0.50;;;;;;;23.68;36.46;99255.77;1810173;78;28149;-54
2023/03/15 06:37:12;;;;;;;0.82;0.50;;;;;;;23.69;35.79;99248.35;1797442;78;28196;-52
2023/03/15 06:40:00;;;;;;;0.40;0.40;;;;;;;23.72;35.14;99251.98;1821210;77;28385;-54
2023/03/15 06:42:49;;;;;;;1.03;0.50;;;;;;;23.68;34.32;99246.70;1788151;78;28191;-52
2023/03/15 06:45:38;;;;;;;0.47;0.47;;;;;;;23.56;32.12;99256.37;1798191;78;28277;-52
2023/03/15 06:48:28;;;;;;;1.20;0.80;;;;;;;23.58;31.55;99261.06;1815010;78;28327;-50
2023/03/15 06:51:18;;;;;;;0.70;0.47;;;;;;;23.62;32.08;99268.27;1773380;79;28003;-51
2023/03/15 06:54:07;;;;;;;0.60;0.57;;;;;;;23.61;32.66;99270.71;1783088;79;28348;-55
2023/03/15 06:56:55;;;;;;;0.70;0.55;;;;;;;23.59;33.33;99274.24;1816193;77;28300;-50
2023/03/15 06:59:43;;;;;;;0.50;0.50;;;;;;;23.48;33.24;99275.95;1819157;78;28264;-53
2023/03/15 07:02:36;;;;;;;0.50;0.50;;;;;;;23.49;33.38;99278.99;1781343;79;28766;-51
2023/03/15 07:05:22;;;;;;;0.50;0.50;;;;;;;23.52;33.70;99285.36;1804979;78;28223;-55
2023/03/15 07:08:10;;;;;;;0.70;0.50;;;;;;;23.56;33.86;99287.06;1819001;78;28228;-52
2023/03/15 07:10:59;;;;;;;0.47;0.47;;;;;;;23.54;34.06;99290.06;1812720;78;28389;-50
2023/03/15 07:13:47;;;;;;;0.70;0.70;;;;;;;23.57;34.12;99289.55;1798073;77;28372;-53
2023/03/15 07:16:36;;;;;;;0.60;0.50;;;;;;;23.56;34.21;99295.28;1794335;78;28218;-54
2023/03/15 07:19:24;;;;;;;0.40;0.40;;;;;;;23.57;34.26;99301.08;1789789;78;28372;-55
2023/03/15 07:22:13;;;;;;;1.20;0.53;;;;;;;23.55;34.36;99305.41;1805870;78;28320;-51
2023/03/15 07:25:01;;;;;;;0.57;0.57;;;;;;;23.59;34.43;99303.03;1778142;78;28725;-51
2023/03/15 07:27:53;;;;;;;0.50;0.50;;;;;;;23.59;34.50;99304.41;1820139;78;28871;-54
2023/03/15 07:30:42;;;;;;;1.50;0.70;;;;;;;23.52;34.73;99311.95;1812905;78;28326;-53
2023/03/15 07:33:32;;;;;;;0.80;0.60;;;;;;;23.52;34.87;99305.93;1821365;78;28285;-53
2023/03/15 07:36:21;;;;;;;2.00;0.57;;;;;;;23.55;35.01;99313.64;1791801;79;28173;-55
2023/03/15 07:39:10;;;;;;;2.62;0.60;;;;;;;23.55;35.28;99321.06;1816085;77;28228;-53
2023/03/15 07:41:59;;;;;;;0.80;0.53;;;;;;;23.53;35.59;99323.19;1805163;78;28243;-50
2023/03/15 07:44:55;;;;;;;0.50;0.50;;;;;;;23.53;36.02;99319.07;1813178;77;28257;-54
2023/03/15 07:47:43;;;;;;;0.68;0.53;;;;;;;23.51;36.18;99325.34;1802845;78;28293;-55
2023/03/15 07:50:32;;;;;;;0.50;0.50;;;;;;;23.49;36.32;99319.28;1806410;78;28264;-54
2023/03/15 07:53:20;;;;;;;1.05;0.60;;;;;;;23.53;36.06;99314.96;1815979;78;28677;-52
2023/03/15 07:56:08;;;;;;;0.62;0.62;;;;;;;23.59;35.89;99319.48;1776026;79;27884;-53
2023/03/15 07:58:57;;;;;;;1.02;0.57;;;;;;;23.59;35.92;99316.74;1813761;78;28325;-52
2023/03/15 08:01:45;;;;;;;0.97;0.47;;;;;;;23.61;36.04;99318.69;1790655;79;28385;-52
2023/03/15 08:04:33;;;;;;;0.50;0.50;;;;;;;23.61;36.13;99326.39;1774476;79;28369;-48
2023/03/15 08:07:22;;;;;;;1.02;0.60;;;;;;;23.63;36.25;99326.13;1824240;76;28421;-53
2023/03/15 08:10:11;;;;;;;1.47;0.55;;;;;;;23.63;36.28;99332.45;1781353;79;28337;-52
2023/03/15 08:12:59;;;;;;;1.60;0.43;;;;;;;23.62;36.38;99328.03;1818076;78;28302;-53
2023/03/15 08:15:48;;;;;;;0.42;0.42;;;;;;;23.60;36.61;99331.56;1790328;79;28444;-52
2023/03/15 08:18:36;;;;;;;0.40;0.40;;;;;;;23.58;36.56;99332.88;1794644;77;28447;-53
2023/03/15 08:21:25;;;;;;;0.50;0.50;;;;;;;23.59;36.57;99334.56;1869138;74;27688;-54
2023/03/15 08:24:15;;;;;;;0.20;0.20;;;;;;;23.61;36.54;99341.47;1874881;76;27867;-54
2023/03/15 08:27:04;;;;;;;0.70;0.55;;;;;;;23.63;36.55;99336.57;1878677;76;28172;-52
2023/03/15 08:29:53;;;;;;;0.65;0.40;;;;;;;23.64;36.49;99340.96;1881024;76;27801;-56
2023/03/15 08:32:43;;;;;;;0.57;0.50;;;;;;;23.64;36.55;99331.92;1870297;76;28359;-54
2023/03/15 08:35:33;;;;;;;0.60;0.60;;;;;;;23.65;36.57;99329.45;1873082;76;28156;-51
2023/03/15 08:38:21;;;;;;;0.40;0.40;;;;;;;23.65;36.58;99326.19;1876476;74;27774;-52
2023/03/15 08:41:10;;;;;;;0.50;0.50;;;;;;;23.66;36.51;99328.39;1861772;74;28234;-54
2023/03/15 08:43:58;;;;;;;0.90;0.70;;;;;;;23.65;36.60;99324.81;1875616;76;28146;-54
2023/03/15 08:46:46;;;;;;;0.40;0.40;;;;;;;23.66;36.59;99324.28;1821855;77;28393;-52
2023/03/15 08:49:35;;;;;;;0.70;0.68;;;;;;;23.65;36.62;99318.48;1881307;76;27846;-53
2023/03/15 08:52:24;;;;;;;0.42;0.42;;;;;;;23.66;36.59;99325.13;1859755;76;27824;-55
2023/03/15 08:55:13;;;;;;;1.10;0.50;;;;;;;23.66;36.60;99324.28;1879582;75;27749;-52
2023/03/15 08:58:02;;;;;;;0.50;0.50;;;;;;;23.67;36.61;99329.51;1875909;76;27812;-53
2023/03/15 09:00:51;;;;;;;0.68;0.50;;;;;;;23.68;36.59;99331.72;1871870;76;28348;-54
2023/03/15 09:03:41;;;;;;;0.60;0.55;;;;;;;23.68;36.55;99330.34;1870852;75;27764;-51
2023/03/15 09:06:30;;;;;;;0.62;0.62;;;;;;;23.65;36.57;99332.20;1880256;76;27717;-51
2023/03/15 09:09:18;;;;;;;0.50;0.50;;;;;;;23.67;36.60;99337.73;1858370;76;28348;-52
2023/03/15 09:12:07;;;;;;;0.45;0.45;;;;;;;23.67;36.59;99336.36;1879981;75;27734;-56
2023/03/15 09:14:55;;;;;;;1.07;0.65;;;;;;;23.67;36.58;99328.14;1870942;76;27745;-52
2023/03/15 09:17:44;;;;;;;0.82;0.47;;;;;;;23.67;36.54;99328.67;1878087;76;29292;-52
2023/03/15 09:20:32;;;;;;;0.50;0.50;;;;;;;23.67;36.56;99330.87;1837420;76;28253;-54
2023/03/15 09:23:21;;;;;;;0.70;0.50;;;;;;;23.68;36.56;99333.09;1836475;76;27905;-53
2023/03/15 09:26:10;;;;;;;0.60;0.60;;;;;;;23.68;36.60;99333.09;1834561;76;28129;-51
2023/03/15 09:28:58;;;;;;;0.90;0.40;;;;;;;23.66;36.54;99336.09;1837820;76;28122;-52
2023/03/15 09:31:46;;;;;;;0.80;0.60;;;;;;;23.65;36.55;99337.16;1833829;76;28180;-50
2023/03/15 09:34:35;;;;;;;0.60;0.60;;;;;;;23.61;36.52;99320.06;1789928;78;28138;-54
2023/03/15 09:37:25;;;;;;;1.50;0.53;;;;;;;23.67;36.59;99331.41;1794460;78;28175;-52
2023/03/15 09:40:25;;;;;;;0.60;0.60;;;;;;;23.67;36.53;99341.84;1833773;76;28189;-51
2023/03/15 09:43:16;;;;;;;0.57;0.57;;;;;;;23.66;36.55;99322.91;1834718;77;27831;-53
2023/03/15 09:46:22;;;;;;;1.25;0.60;;;;;;;23.64;36.61;99322.33;1831465;76;28197;-54
2023/03/15 09:49:29;;;;;;;0.50;0.50;;;;;;;23.65;36.60;99326.72;1786010;77;28201;-52
2023/03/15 09:52:26;;;;;;;0.87;0.70;;;;;;;23.63;36.58;99318.75;1801833;78;28207;-55
2023/03/15 09:55:23;;;;;;;0.50;0.50;;;;;;;23.61;36.56;99320.91;1827565;77;28226;-60
2023/03/15 09:58:14;;;;;;;0.45;0.45;;;;;;;23.60;36.61;99318.39;1834998;77;28208;-56
2023/03/15 10:01:06;;;;;;;0.60;0.60;;;;;;;23.59;36.62;99317.58;1831423;76;28231;-52
2023/03/15 10:03:55;;;;;;;0.50;0.50;;;;;;;23.58;36.63;99317.27;1825297;76;28476;-54
2023/03/15 10:06:46;;;;;;;0.65;0.62;;;;;;;23.62;36.60;99314.89;1805686;77;28202;-50
2023/03/15 10:09:36;;;;;;;0.80;0.80;;;;;;;23.64;36.52;99318.22;1830466;76;28129;-53
2023/03/15 10:12:30;;;;;;;1.35;0.70;;;;;;;23.64;36.50;99314.10;1809247;77;28222;-52
2023/03/15 10:15:40;;;;;;;0.60;0.60;;;;;;;23.67;36.46;99314.42;1797026;78;28231;-54
2023/03/15 10:18:47;;;;;;;0.80;0.80;;;;;;;23.61;36.39;99307.20;1776273;79;28261;-53
2023/03/15 10:21:42;;;;;;;0.87;0.87;;;;;;;23.63;36.48;99319.28;1820728;76;28326;-54
2023/03/15 10:24:40;;;;;;;0.50;0.50;;;;;;;23.62;36.49;99323.92;1825485;76;28422;-54
2023/03/15 10:27:44;;;;;;;1.80;0.70;;;;;;;23.63;36.45;99317.91;1826400;76;28401;-55
2023/03/15 10:30:35;;;;;;;0.70;0.70;;;;;;;23.63;36.38;99322.86;1824334;76;28418;-52
2023/03/15 10:33:35;;;;;;;0.60;0.60;;;;;;;23.62;36.39;99314.89;1817601;77;28441;-53
2023/03/15 10:36:25;;;;;;;0.50;0.50;;;;;;;23.63;36.41;99317.38;1818498;76;28268;-51
2023/03/15 10:39:14;;;;;;;0.70;0.70;;;;;;;23.61;36.39;99303.61;1829628;78;28232;-50
2023/03/15 10:42:03;;;;;;;1.65;0.60;;;;;;;23.65;36.38;99310.27;1824540;76;28892;-53
2023/03/15 10:44:52;;;;;;;0.78;0.78;;;;;;;23.65;36.37;99306.98;1846535;76;28282;-54
2023/03/15 10:47:44;;;;;;;1.00;0.90;;;;;;;23.65;36.37;99300.13;1837527;76;28405;-52
2023/03/15 10:50:34;;;;;;;0.80;0.70;;;;;;;23.60;36.46;99297.29;1834582;76;28379;-53
2023/03/15 10:53:24;;;;;;;0.70;0.70;;;;;;;23.53;36.44;99281.53;1831840;76;28351;-54
2023/03/15 10:56:15;;;;;;;0.60;0.60;;;;;;;23.60;36.44;99287.70;1828246;77;33211;-50
2023/03/15 10:59:05;;;;;;;1.17;0.90;;;;;;;23.59;36.45;99279.72;1819225;78;28426;-53
2023/03/15 11:01:56;;;;;;;0.72;0.72;;;;;;;23.59;36.40;99271.50;1844754;76;28170;-52
2023/03/15 11:05:06;;;;;;;0.98;0.98;;;;;;;23.60;36.37;99266.29;1828223;76;28292;-49
2023/03/15 11:07:57;;;;;;;0.88;0.80;;;;;;;23.54;36.38;99265.91;1814500;77;29102;-51
2023/03/15 11:10:48;;;;;;;0.80;0.80;;;;;;;23.52;36.50;99252.47;1840967;76;28270;-53
2023/03/15 11:13:39;;;;;;;0.80;0.80;;;;;;;23.53;36.38;99256.02;1825369;76;28304;-52
2023/03/15 11:16:30;;;;;;;0.80;0.80;;;;;;;23.58;36.31;99252.00;1831979;76;28262;-54
2023/03/15 11:19:22;;;;;;;1.40;0.70;;;;;;;23.51;36.45;99250.79;1832453;77;28329;-51
2023/03/15 11:22:13;;;;;;;0.80;0.80;;;;;;;23.46;36.52;99241.09;1838382;76;28208;-51
2023/03/15 11:25:02;;;;;;;1.30;0.90;;;;;;;23.51;36.45;99243.09;1840166;76;28178;-53
2023/03/15 11:27:52;;;;;;;1.05;0.95;;;;;;;23.53;36.42;99249.16;1829473;76;28099;-54
2023/03/15 11:30:40;;;;;;;0.80;0.80;;;;;;;23.56;36.34;99250.89;1822557;76;28378;-53
2023/03/15 11:33:47;;;;;;;1.15;1.00;;;;;;;23.59;36.28;99249.56;1835137;76;28135;-54
2023/03/15 11:36:38;;;;;;;1.80;0.98;;;;;;;23.56;36.20;99253.63;1817719;76;28235;-54
2023/03/15 11:39:35;;;;;;;0.90;0.80;;;;;;;23.54;36.21;99243.45;1835243;76;28074;-53
2023/03/15 11:42:26;;;;;;;1.90;0.80;;;;;;;23.52;36.24;99231.91;1834207;76;28180;-50
2023/03/15 11:45:29;;;;;;;1.87;1.02;;;;;;;23.51;36.27;99246.67;1837456;76;30116;-51
2023/03/15 11:48:49;;;;;;;2.05;0.85;;;;;;;23.52;36.33;99236.02;1844402;76;28235;-52
2023/03/15 11:51:39;;;;;;;0.90;0.90;;;;;;;23.51;36.30;99234.88;1834890;76;28187;-52
2023/03/15 11:54:30;;;;;;;0.98;0.90;;;;;;;23.48;36.34;99229.34;1801073;77;28450;-55
2023/03/15 11:57:43;;;;;;;0.90;0.90;;;;;;;23.49;36.34;99235.66;1830634;76;28186;-53
2023/03/15 12:00:35;;;;;;;0.80;0.80;;;;;;;23.50;36.29;99235.97;1830126;76;28034;-55
2023/03/15 12:03:38;;;;;;;0.95;0.95;;;;;;;23.49;36.17;99226.06;1859548;76;28076;-52
2023/03/15 12:06:36;;;;;;;0.90;0.90;;;;;;;23.49;36.15;99220.58;1853798;76;28197;-57
2023/03/15 12:09:36;;;;;;;0.88;0.88;;;;;;;23.47;36.11;99204.39;1845787;76;28121;-54
2023/03/15 12:12:27;;;;;;;2.80;1.20;;;;;;;23.50;36.05;99211.30;1823143;76;28146;-52
2023/03/15 12:15:22;;;;;;;0.80;0.80;;;;;;;23.48;35.95;99200.55;1819162;77;28412;-57
2023/03/15 12:18:13;;;;;;;0.98;0.98;;;;;;;23.48;35.84;99198.38;1827211;76;28319;-56
2023/03/15 12:21:10;;;;;;;0.70;0.70;;;;;;;23.48;35.80;99192.33;1843394;76;28219;-55
2023/03/15 12:24:08;;;;;;;2.40;1.20;;;;;;;23.48;35.78;99196.44;1785436;79;28361;-53
2023/03/15 12:27:08;;;;;;;3.62;1.05;;;;;;;23.50;35.72;99207.18;1850975;76;28239;-54
2023/03/15 12:30:02;;;;;;;1.20;0.95;;;;;;;23.48;35.74;99190.96;1846583;77;28192;-57
2023/03/15 12:32:53;;;;;;;1.10;0.90;;;;;;;23.44;35.96;99188.43;1814004;77;28315;-54
2023/03/15 12:35:43;;;;;;;1.42;0.95;;;;;;;23.48;35.96;99189.59;1823987;77;28286;-53
2023/03/15 12:38:42;;;;;;;1.00;0.90;;;;;;;23.45;36.01;99185.99;1839151;77;28265;-54
2023/03/15 12:41:45;;;;;;;1.40;0.88;;;;;;;23.47;35.93;99177.52;1847339;77;28236;-52
2023/03/15 12:44:42;;;;;;;1.27;0.90;;;;;;;23.47;35.85;99172.87;1836910;76;28236;-55
2023/03/15 12:47:34;;;;;;;0.80;0.80;;;;;;;23.48;35.84;99176.45;1841404;77;28231;-54
2023/03/15 12:50:49;;;;;;;1.30;0.80;;;;;;;23.46;35.81;99164.34;1812683;78;28323;-52
2023/03/15 12:53:42;;;;;;;1.37;0.90;;;;;;;23.48;35.74;99161.37;1845402;77;28224;-54
2023/03/15 12:56:43;;;;;;;2.72;0.93;;;;;;;23.44;35.76;99162.92;1839918;77;28229;-54
2023/03/15 12:59:40;;;;;;;1.00;1.00;;;;;;;23.45;35.70;99166.80;1827535;77;28254;-53
2023/03/15 13:02:50;;;;;;;1.55;1.15;;;;;;;23.44;35.71;99168.41;1820517;77;28222;-53
2023/03/15 13:05:54;;;;;;;0.70;0.70;;;;;;;23.45;35.65;99162.69;1833344;77;28220;-52
2023/03/15 13:08:54;;;;;;;0.80;0.80;;;;;;;23.42;35.65;99156.86;1803583;79;28295;-54
2023/03/15 13:12:03;;;;;;;0.82;0.82;;;;;;;23.43;35.64;99140.72;1823808;77;28268;-55
2023/03/15 13:14:58;;;;;;;0.82;0.82;;;;;;;23.41;35.61;99135.46;1847257;77;28586;-52
2023/03/15 13:17:52;;;;;;;1.50;0.70;;;;;;;23.41;35.53;99140.95;1823393;77;28622;-54
2023/03/15 13:20:44;;;;;;;1.07;0.80;;;;;;;23.41;35.50;99137.40;1838482;77;28149;-54
2023/03/15 13:23:34;;;;;;;1.45;0.80;;;;;;;23.41;35.50;99124.50;1800373;78;28222;-54
2023/03/15 13:26:43;;;;;;;0.90;0.80;;;;;;;23.42;35.44;99134.93;1821924;78;28357;-53
2023/03/15 13:29:33;;;;;;;1.00;0.85;;;;;;;23.43;35.37;99133.33;1819774;78;28340;-52
2023/03/15 13:32:23;;;;;;;0.72;0.72;;;;;;;23.42;35.38;99132.19;1809335;78;28286;-52